Airfield :
LOGIN :

Register | Disclaimer

   EN    FR    IT 

 










Legend :    VFR   Marginal VFR   IFR   Intensive IFR   Very Intensive IFR
Visi :
Ceiling :
>= 8 km
>= 3000ft
5 to 8 km
1000 to 3000 ft
1500m to 5 km
500 to 1000 ft
800 to 1500m
200 to 500 ft
< 800m
< 200 ft
Symbols :   Thunderstorms  Fog  Heavy snow  Heavy precipitations  Wind > 20 kt
SIGMETs :     Misc.  Thunderstorms  Icing  Turbulence  Mountain Waves  Volcanic Ashes






- Airport Elevation : 274 ft
- IATA code : PUY


LDPL - Pula

CURRENT METAR :
  • 130500Z 06022KT 9999 -RA OVC045 06/04 Q1014 TEMPO 06022G35KT

EXPIRED METARs :
  • 130430Z 06021KT 9999 -RA OVC045 07/04 Q1014 TEMPO 06020G35KT
  • 130400Z 06021KT 9999 -RA OVC040 07/04 Q1013 RERA TEMPO 06020G35KT
  • 130330Z 06017KT 9999 -RA SCT007 OVC050 07/05 Q1013 RERA
  • 130300Z 07019KT 8000 RA BKN007 OVC050 08/06 Q1013
  • 130230Z 06015KT 6000 RA BKN007 OVC050 08/07 Q1014 RETS

TAF TAF LDPL
Valid from the 13 at 00:00 until the 14 at 00:00 UTC


122325Z 1300/1400 14008KT 9999 SCT005 OVC035 TX12/1300Z TN04/1323Z
TEMPO 1300/1305 4000 RA BKN005 OVC025
BECMG 1301/1303 06015KT
TEMPO 1302/1310 06020G35KT



MET'MAP, your aeronautical weather chart ! - Copyright ORBIFLY December 2007 - Disclaimer

ORBIFLY MET'MAP TEAM :

Programming & Development : Alexandra Zaïnal
Concept & original design : Baudouin d'Aumeries
Assistance for programming : Marc-Olivier Méhu
Technical & hardware support : Manuel Goepfert

Contact : metmap@orbifly.com




SOURCES & CREDITS :

   NOAA